createdAt,value
2023-03-29T00:00:15.776Z,77.61
2023-03-29T00:05:39.054Z,76.64
2023-03-29T00:11:01.140Z,75.48
2023-03-29T00:16:23.126Z,75.73
2023-03-29T00:21:44.898Z,75.84
2023-03-29T00:27:06.998Z,76.61
2023-03-29T00:32:28.993Z,75.98
2023-03-29T00:37:50.986Z,75.02
2023-03-29T00:43:14.733Z,74.56
2023-03-29T00:48:36.542Z,75.10
2023-03-29T00:54:01.651Z,75.33
2023-03-29T00:59:25.734Z,76.35
2023-03-29T01:05:05.860Z,73.54
2023-03-29T01:10:36.135Z,75.73
2023-03-29T01:15:59.058Z,74.56
2023-03-29T01:21:29.225Z,74.43
2023-03-29T01:27:00.514Z,72.80
2023-03-29T01:32:39.253Z,74.04
2023-03-29T01:38:23.376Z,74.32
2023-03-29T01:44:02.119Z,74.20
2023-03-29T01:49:28.793Z,74.06
2023-03-29T01:55:00.908Z,74.87
2023-03-29T02:00:27.422Z,75.06
2023-03-29T02:05:49.360Z,74.80
2023-03-29T02:11:11.242Z,74.71
2023-03-29T02:16:37.576Z,76.24
2023-03-29T02:22:07.092Z,75.28
2023-03-29T02:27:29.891Z,75.39
2023-03-29T02:33:05.022Z,74.50
2023-03-29T02:38:27.927Z,74.68
2023-03-29T02:43:50.640Z,74.29
2023-03-29T02:49:12.912Z,75.15
2023-03-29T02:54:37.871Z,74.39
2023-03-29T03:00:00.968Z,75.90
2023-03-29T03:05:23.811Z,76.62
2023-03-29T03:10:46.699Z,75.66
2023-03-29T03:16:09.354Z,76.31
2023-03-29T03:21:31.107Z,75.81
2023-03-29T03:26:52.875Z,74.99
2023-03-29T03:32:14.623Z,73.66
2023-03-29T03:37:36.301Z,73.86
2023-03-29T03:42:58.222Z,73.80
2023-03-29T03:48:20.332Z,72.27
2023-03-29T03:53:42.287Z,71.43
2023-03-29T03:59:04.674Z,71.03
2023-03-29T04:04:26.706Z,69.96
2023-03-29T04:09:48.792Z,69.44
2023-03-29T04:15:11.983Z,69.02
2023-03-29T04:20:34.075Z,68.95
2023-03-29T04:25:59.313Z,69.39
2023-03-29T04:31:21.078Z,69.46
2023-03-29T04:36:43.714Z,69.54
2023-03-29T04:42:05.906Z,68.16
2023-03-29T04:47:31.229Z,67.65
2023-03-29T04:52:52.950Z,67.45
2023-03-29T04:58:15.005Z,66.48
2023-03-29T05:03:36.688Z,66.36
2023-03-29T05:08:58.373Z,66.97
2023-03-29T05:14:20.565Z,66.31
2023-03-29T05:19:43.599Z,67.07
2023-03-29T05:25:05.978Z,66.62
2023-03-29T05:30:27.725Z,66.55
2023-03-29T05:35:49.441Z,66.15
2023-03-29T05:41:11.372Z,64.49
2023-03-29T05:46:33.108Z,65.71
2023-03-29T05:51:56.845Z,63.68
2023-03-29T05:57:18.787Z,64.69
2023-03-29T06:02:41.843Z,65.57
2023-03-29T06:08:03.701Z,65.78
2023-03-29T06:13:26.156Z,64.42
2023-03-29T06:18:47.904Z,64.86
2023-03-29T06:24:09.639Z,65.77
2023-03-29T06:29:31.584Z,65.69
2023-03-29T06:34:54.320Z,65.81
2023-03-29T06:40:21.190Z,63.35
2023-03-29T06:45:43.621Z,63.25
2023-03-29T06:51:07.507Z,63.63
2023-03-29T06:56:29.840Z,64.08
2023-03-29T07:01:53.875Z,63.02
2023-03-29T07:07:22.142Z,61.61
2023-03-29T07:12:46.116Z,60.99
2023-03-29T07:18:12.579Z,60.90
2023-03-29T07:23:34.793Z,60.19
2023-03-29T07:28:56.500Z,58.93
2023-03-29T07:34:18.240Z,59.32
2023-03-29T07:39:40.290Z,59.68
2023-03-29T07:45:04.048Z,59.29
2023-03-29T07:50:27.272Z,59.56
2023-03-29T07:55:50.029Z,60.01
2023-03-29T08:01:17.997Z,59.72
2023-03-29T08:06:41.209Z,59.12
2023-03-29T08:12:02.981Z,57.23
2023-03-29T08:17:24.742Z,57.11
2023-03-29T08:22:46.568Z,57.33
2023-03-29T08:28:08.577Z,57.08
2023-03-29T08:33:30.253Z,55.70
2023-03-29T08:38:52.020Z,56.41
2023-03-29T08:44:32.757Z,56.15
2023-03-29T08:49:56.401Z,55.15
2023-03-29T08:55:29.405Z,56.04
2023-03-29T09:00:59.703Z,55.33
2023-03-29T09:06:21.971Z,55.83
2023-03-29T09:12:11.876Z,54.33
2023-03-29T09:17:41.697Z,54.75
2023-03-29T09:23:30.273Z,53.70
2023-03-29T09:29:06.134Z,54.00
2023-03-29T09:34:34.707Z,53.81
2023-03-29T09:39:57.586Z,53.07
2023-03-29T09:45:19.453Z,51.72
2023-03-29T09:50:46.445Z,51.53
2023-03-29T09:56:08.589Z,49.76
2023-03-29T10:01:39.815Z,50.13
2023-03-29T10:07:01.669Z,50.23
2023-03-29T10:12:23.394Z,48.87
2023-03-29T10:17:46.154Z,49.41
2023-03-29T10:23:17.214Z,49.49
2023-03-29T10:28:39.906Z,48.51
2023-03-29T10:34:04.958Z,49.58
2023-03-29T10:39:32.753Z,48.95
2023-03-29T10:44:59.470Z,48.86
2023-03-29T10:50:21.221Z,47.79
2023-03-29T10:55:49.157Z,46.86
2023-03-29T11:01:22.042Z,46.48
2023-03-29T11:06:53.797Z,46.29
2023-03-29T11:12:38.949Z,47.43
2023-03-29T11:18:25.131Z,47.42
2023-03-29T11:24:04.917Z,46.74
2023-03-29T11:29:38.476Z,46.03
2023-03-29T11:35:18.493Z,46.01
2023-03-29T11:40:55.399Z,47.05
2023-03-29T11:46:23.607Z,47.45
2023-03-29T11:51:54.281Z,47.83
2023-03-29T11:57:39.868Z,46.83
2023-03-29T12:03:19.703Z,46.16
2023-03-29T12:08:48.263Z,46.02
2023-03-29T12:14:46.839Z,44.66
2023-03-29T12:20:28.274Z,45.17
2023-03-29T12:26:03.664Z,44.78
2023-03-29T12:31:47.869Z,44.52
2023-03-29T12:37:21.999Z,44.67
2023-03-29T12:42:59.688Z,45.78
2023-03-29T12:48:28.478Z,45.89
2023-03-29T12:54:00.457Z,46.65
2023-03-29T12:59:52.266Z,48.29
2023-03-29T13:05:29.549Z,48.23
2023-03-29T13:10:56.234Z,48.71
2023-03-29T13:16:21.774Z,48.44
2023-03-29T13:22:04.676Z,47.85
2023-03-29T13:27:56.189Z,48.01
2023-03-29T13:34:09.759Z,48.12
2023-03-29T13:39:36.773Z,49.24
2023-03-29T13:45:26.172Z,51.01
2023-03-29T13:50:55.583Z,52.99
2023-03-29T13:56:24.683Z,53.51
2023-03-29T14:01:57.826Z,54.26
2023-03-29T14:07:26.143Z,60.99
2023-03-29T14:12:48.603Z,71.27
2023-03-29T14:18:12.525Z,69.45
2023-03-29T14:23:37.108Z,72.34
2023-03-29T14:29:02.587Z,71.77
2023-03-29T14:34:24.342Z,71.78
2023-03-29T14:39:46.255Z,73.25
2023-03-29T14:45:14.108Z,70.26
2023-03-29T14:50:36.435Z,69.08
2023-03-29T14:55:58.603Z,69.86
2023-03-29T15:01:23.480Z,68.38
2023-03-29T15:06:46.895Z,67.25
2023-03-29T15:12:16.098Z,66.79
2023-03-29T15:17:50.521Z,66.03
2023-03-29T15:23:16.750Z,67.39
2023-03-29T15:28:48.180Z,67.68
2023-03-29T15:34:12.978Z,68.70
2023-03-29T15:39:35.130Z,67.66
2023-03-29T15:44:56.841Z,66.15
2023-03-29T15:50:18.857Z,65.79
2023-03-29T15:55:44.580Z,65.35
2023-03-29T16:01:11.980Z,65.39
2023-03-29T16:06:34.673Z,65.46
2023-03-29T16:11:56.473Z,65.36
2023-03-29T16:17:18.220Z,64.61
2023-03-29T16:22:39.924Z,64.79
2023-03-29T16:28:01.594Z,65.51
2023-03-29T16:33:23.326Z,64.97
2023-03-29T16:38:45.110Z,64.74
2023-03-29T16:44:07.339Z,65.09
2023-03-29T16:49:29.079Z,66.06
2023-03-29T16:54:50.772Z,65.68
2023-03-29T17:00:15.779Z,66.35
2023-03-29T17:05:41.267Z,66.99
2023-03-29T17:11:03.820Z,67.20
2023-03-29T17:16:28.405Z,67.31
2023-03-29T17:21:51.252Z,67.26
2023-03-29T17:27:13.005Z,66.37
2023-03-29T17:32:35.678Z,66.62
2023-03-29T17:38:01.316Z,66.60
2023-03-29T17:43:23.237Z,68.51
2023-03-29T17:48:46.226Z,69.24
2023-03-29T17:54:08.148Z,69.39
2023-03-29T17:59:29.885Z,69.26
2023-03-29T18:04:51.723Z,68.69
2023-03-29T18:10:13.448Z,68.97
2023-03-29T18:15:35.360Z,68.09
2023-03-29T18:20:57.067Z,68.26
2023-03-29T18:26:19.048Z,67.93
2023-03-29T18:31:40.990Z,67.35
2023-03-29T18:37:02.936Z,66.33
2023-03-29T18:42:24.975Z,66.22
2023-03-29T18:47:46.850Z,65.08
2023-03-29T18:53:10.845Z,64.59
2023-03-29T18:58:32.643Z,64.76
2023-03-29T19:03:54.420Z,64.88
2023-03-29T19:09:16.219Z,63.12
2023-03-29T19:14:38.002Z,61.99
2023-03-29T19:19:59.821Z,62.17
2023-03-29T19:25:21.612Z,62.53
2023-03-29T19:30:43.540Z,63.06
2023-03-29T19:36:05.812Z,62.92
2023-03-29T19:41:28.246Z,63.29
2023-03-29T19:46:51.202Z,62.80
2023-03-29T19:52:14.074Z,63.02
2023-03-29T19:57:35.876Z,63.52
2023-03-29T20:02:57.694Z,64.18
2023-03-29T20:08:19.812Z,64.04
2023-03-29T20:13:42.897Z,64.44
2023-03-29T20:19:06.907Z,63.89
2023-03-29T20:24:29.056Z,65.23
2023-03-29T20:29:50.837Z,64.47
2023-03-29T20:35:12.660Z,64.56
2023-03-29T20:40:34.554Z,65.31
2023-03-29T20:45:56.298Z,65.12
2023-03-29T20:51:18.096Z,65.29
2023-03-29T20:56:42.244Z,66.04
2023-03-29T21:02:04.518Z,66.60
2023-03-29T21:07:26.488Z,66.86
2023-03-29T21:12:48.422Z,67.19
2023-03-29T21:18:10.154Z,66.96
2023-03-29T21:23:32.054Z,67.65
2023-03-29T21:28:53.881Z,67.18
2023-03-29T21:34:15.790Z,67.91
2023-03-29T21:39:37.496Z,66.56
2023-03-29T21:44:59.208Z,64.53
2023-03-29T21:50:20.955Z,63.48
2023-03-29T21:55:42.656Z,61.41
2023-03-29T22:01:07.144Z,61.47
2023-03-29T22:06:29.018Z,59.74
2023-03-29T22:11:51.764Z,59.83
2023-03-29T22:17:13.454Z,59.12
2023-03-29T22:22:35.185Z,59.05
2023-03-29T22:27:56.878Z,59.08
2023-03-29T22:33:18.547Z,58.79
2023-03-29T22:38:40.442Z,58.46
2023-03-29T22:44:02.247Z,58.14
2023-03-29T22:49:24.053Z,58.43
2023-03-29T22:54:45.728Z,58.36
2023-03-29T23:00:09.147Z,58.66
2023-03-29T23:05:31.153Z,58.50
2023-03-29T23:10:52.998Z,58.63
2023-03-29T23:16:15.426Z,58.73
2023-03-29T23:21:37.216Z,58.25
2023-03-29T23:26:59.210Z,58.65
2023-03-29T23:32:21.049Z,58.29
2023-03-29T23:37:43.342Z,58.06
2023-03-29T23:43:05.094Z,58.20
2023-03-29T23:48:27.153Z,58.07
2023-03-29T23:53:49.498Z,58.60
2023-03-29T23:59:11.222Z,59.59
